Time;durP1;ratioP1;P1;durP2;ratioP2;P2;SDS_P1;SDS_P2;PMS_P1;PMS_P2;Temp;Humidity;BMP_temperature;BMP_pressure;BME280_temperature;BME280_humidity;BME280_pressure;Samples;Min_cycle;Max_cycle;Signal;HPM_P1;HPM_P2
2021/03/12 00:01:00;;;;;;;;;;;;;;;3.60;43.02;95874.76;1731238;82;20236;-54
2021/03/12 00:03:30;;;;;;;;;;;;;;;3.62;43.34;95863.98;1737767;82;20239;-54
2021/03/12 00:06:03;;;;;;;;;;;;;;;3.64;43.47;95855.27;1737467;82;20234;-54
2021/03/12 00:08:34;;;;;;;;;;;;;;;3.69;43.36;95855.03;1737036;82;20510;-53
2021/03/12 00:11:03;;;;;;;;;;;;;;;3.75;42.99;95874.38;1737752;82;21399;-53
2021/03/12 00:13:30;;;;;;;;;;;;;;;3.77;42.84;95863.59;1737731;82;20218;-54
2021/03/12 00:15:58;;;;;;;;;;;;;;;3.79;42.99;95875.41;1737706;82;20219;-53
2021/03/12 00:18:35;;;;;;;;;;;;;;;3.79;42.55;95876.70;1737492;82;20251;-53
2021/03/12 00:21:03;;;;;;;;;;;;;;;3.75;42.77;95823.91;1767245;80;20239;-53
2021/03/12 00:23:30;;;;;;;;;;;;;;;3.69;42.98;95840.92;1767943;80;23683;-53
2021/03/12 00:25:58;;;;;;;;;;;;;;;3.62;43.29;95830.63;1765138;80;21117;-53
2021/03/12 00:28:25;;;;;;;;;;;;;;;3.53;43.32;95829.84;1776889;80;20306;-53
2021/03/12 00:30:53;;;;;;;;;;;;;;;3.49;43.35;95824.87;1768312;80;20248;-54
2021/03/12 00:33:23;;;;;;;;;;;;;;;3.45;43.65;95809.73;1760577;80;20291;-53
2021/03/12 00:35:52;;;;;;;;;;;;;;;3.39;43.89;95801.94;1767543;80;20212;-53
2021/03/12 00:38:20;;;;;;;;;;;;;;;3.39;43.81;95805.78;1766886;80;20213;-53
2021/03/12 00:40:53;;;;;;;;;;;;;;;3.41;44.04;95810.36;1764842;81;20240;-53
2021/03/12 00:43:21;;;;;;;;;;;;;;;3.43;43.92;95786.73;1767238;80;20623;-53
2021/03/12 00:45:55;;;;;;;;;;;;;;;3.48;44.05;95753.14;1765457;80;20311;-52
2021/03/12 00:48:24;;;;;;;;;;;;;;;3.50;44.08;95752.59;1765466;81;21202;-53
2021/03/12 00:50:52;;;;;;;;;;;;;;;3.55;44.06;95742.08;1770136;80;20214;-52
2021/03/12 00:53:21;;;;;;;;;;;;;;;3.62;43.74;95745.98;1769430;80;20219;-53
2021/03/12 00:55:49;;;;;;;;;;;;;;;3.67;44.09;95757.62;1757094;81;21059;-53
2021/03/12 00:58:18;;;;;;;;;;;;;;;3.72;43.98;95738.13;1763427;81;20219;-53
2021/03/12 01:00:46;;;;;;;;;;;;;;;3.77;43.88;95728.41;1769041;80;21376;-54
2021/03/12 01:03:14;;;;;;;;;;;;;;;3.80;43.89;95719.27;1768509;80;20485;-53
2021/03/12 01:05:43;;;;;;;;;;;;;;;3.84;43.96;95718.63;1769050;80;20206;-53
2021/03/12 01:08:13;;;;;;;;;;;;;;;3.89;44.39;95714.52;1747576;81;20223;-52
2021/03/12 01:10:41;;;;;;;;;;;;;;;3.91;43.82;95708.36;1775835;80;20506;-53
2021/03/12 01:13:08;;;;;;;;;;;;;;;3.94;43.69;95705.62;1767381;80;22127;-53
2021/03/12 01:15:37;;;;;;;;;;;;;;;3.96;43.96;95701.69;1764413;80;20240;-53
2021/03/12 01:18:06;;;;;;;;;;;;;;;4.00;44.10;95693.72;1751359;80;20250;-53
2021/03/12 01:20:35;;;;;;;;;;;;;;;4.02;43.51;95682.08;1733967;81;20243;-52
2021/03/12 01:23:03;;;;;;;;;;;;;;;4.01;43.50;95668.87;1766440;80;20236;-55
2021/03/12 01:25:36;;;;;;;;;;;;;;;3.97;43.87;95680.25;1775811;80;20238;-54
2021/03/12 01:28:04;;;;;;;;;;;;;;;3.95;43.92;95677.77;1770383;79;20241;-54
2021/03/12 01:30:36;;;;;;;;;;;;;;;3.95;43.92;95662.84;1745049;81;20245;-53
2021/03/12 01:33:06;;;;;;;;;;;;;;;3.95;43.68;95668.78;1771452;80;20732;-54
2021/03/12 01:35:34;;;;;;;;;;;;;;;3.98;43.85;95652.36;1752432;80;20228;-53
2021/03/12 01:38:04;;;;;;;;;;;;;;;4.03;43.83;95654.22;1791829;80;21206;-53
2021/03/12 01:40:32;;;;;;;;;;;;;;;4.07;43.82;95658.24;1789409;79;20238;-54
2021/03/12 01:43:02;;;;;;;;;;;;;;;4.15;43.44;95657.33;1751230;80;20218;-53
2021/03/12 01:45:33;;;;;;;;;;;;;;;4.21;43.18;95650.98;1784167;80;20211;-53
2021/03/12 01:48:02;;;;;;;;;;;;;;;4.26;43.16;95625.88;1743179;81;20507;-53
2021/03/12 01:50:30;;;;;;;;;;;;;;;4.30;42.94;95641.45;1781524;80;21208;-53
2021/03/12 01:52:57;;;;;;;;;;;;;;;4.31;42.65;95631.56;1776249;80;20315;-54
2021/03/12 01:55:31;;;;;;;;;;;;;;;4.34;42.70;95632.66;1772731;80;20472;-52
2021/03/12 01:58:06;;;;;;;;;;;;;;;4.43;42.70;95650.05;1874929;74;20203;-53
2021/03/12 02:00:35;;;;;;;;;;;;;;;4.42;42.22;95641.16;1871549;76;20215;-53
2021/03/12 02:03:11;;;;;;;;;;;;;;;4.42;42.20;95634.30;1887021;76;22182;-53
2021/03/12 02:05:48;;;;;;;;;;;;;;;4.39;42.63;95629.34;1698622;84;20600;-52
2021/03/12 02:08:16;;;;;;;;;;;;;;;4.37;41.94;95627.78;1730545;82;20133;-52
2021/03/12 02:10:45;;;;;;;;;;;;;;;4.34;42.13;95648.50;1750954;82;20217;-52
2021/03/12 02:13:27;;;;;;;;;;;;;;;4.30;42.13;95641.92;1744771;82;20216;-54
2021/03/12 02:16:21;;;;;;;;;;;;;;;4.26;42.51;95641.73;1739023;81;21149;-53
2021/03/12 02:18:59;;;;;;;;;;;;;;;4.16;42.91;95653.01;1747603;80;20598;-53
2021/03/12 02:21:36;;;;;;;;;;;;;;;4.07;43.05;95662.09;1750574;81;20153;-53
2021/03/12 02:24:10;;;;;;;;;;;;;;;4.05;43.52;95674.20;1747495;80;20224;-53
2021/03/12 02:26:47;;;;;;;;;;;;;;;3.98;43.58;95692.99;1745689;82;20228;-53
2021/03/12 02:29:19;;;;;;;;;;;;;;;3.90;44.02;95693.89;1751202;82;21382;-54
2021/03/12 02:31:47;;;;;;;;;;;;;;;3.81;44.50;95703.40;1733616;82;20283;-55
2021/03/12 02:34:15;;;;;;;;;;;;;;;3.78;45.09;95721.53;1721003;83;20245;-53
2021/03/12 02:36:46;;;;;;;;;;;;;;;3.77;46.00;95714.30;1740022;82;20229;-53
2021/03/12 02:39:16;;;;;;;;;;;;;;;3.74;46.77;95718.80;1751974;81;20229;-53
2021/03/12 02:41:44;;;;;;;;;;;;;;;3.68;47.41;95709.69;1751442;82;21451;-52
2021/03/12 02:44:12;;;;;;;;;;;;;;;3.65;48.46;95738.92;1741977;82;20216;-51
2021/03/12 02:46:41;;;;;;;;;;;;;;;3.68;49.12;95743.04;1742100;82;20225;-52
2021/03/12 02:49:09;;;;;;;;;;;;;;;3.73;49.13;95743.60;1746188;82;20244;-53
2021/03/12 02:51:37;;;;;;;;;;;;;;;3.78;49.87;95767.29;1714243;82;20299;-54
2021/03/12 02:54:06;;;;;;;;;;;;;;;3.81;50.26;95777.81;1738039;82;22793;-54
2021/03/12 02:56:35;;;;;;;;;;;;;;;3.84;51.11;95790.48;1715613;83;20230;-53
2021/03/12 02:59:03;;;;;;;;;;;;;;;3.86;51.85;95783.08;1733194;83;20224;-53
2021/03/12 03:01:34;;;;;;;;;;;;;;;3.85;51.99;95785.73;1706704;83;20219;-53
2021/03/12 03:04:15;;;;;;;;;;;;;;;3.77;52.68;95787.44;1715600;82;20251;-54
2021/03/12 03:06:46;;;;;;;;;;;;;;;3.68;53.10;95791.78;1710232;83;21395;-53
2021/03/12 03:09:14;;;;;;;;;;;;;;;3.53;52.19;95768.28;1713636;83;20217;-53
2021/03/12 03:11:42;;;;;;;;;;;;;;;3.39;50.78;95780.13;1732399;83;20513;-55
2021/03/12 03:14:13;;;;;;;;;;;;;;;3.28;49.75;95774.30;1732691;83;20216;-53
2021/03/12 03:16:40;;;;;;;;;;;;;;;3.24;49.81;95745.06;1713078;83;20248;-53
2021/03/12 03:19:08;;;;;;;;;;;;;;;3.23;49.89;95751.94;1723285;81;21311;-55
2021/03/12 03:21:35;;;;;;;;;;;;;;;3.18;50.06;95761.62;1728384;83;20315;-53
2021/03/12 03:24:15;;;;;;;;;;;;;;;3.09;52.31;95757.83;1722382;83;20247;-53
2021/03/12 03:26:43;;;;;;;;;;;;;;;2.97;51.78;95753.34;1727295;83;20247;-53
2021/03/12 03:29:11;;;;;;;;;;;;;;;2.91;51.92;95743.41;1720229;82;20223;-54
2021/03/12 03:31:39;;;;;;;;;;;;;;;2.86;52.42;95760.77;1718990;83;21229;-53
2021/03/12 03:34:06;;;;;;;;;;;;;;;2.83;53.66;95736.59;1724446;83;20275;-53
2021/03/12 03:36:34;;;;;;;;;;;;;;;2.75;53.35;95749.37;1727366;83;20218;-54
2021/03/12 03:39:01;;;;;;;;;;;;;;;2.76;52.09;95752.31;1723057;83;20219;-55
2021/03/12 03:41:30;;;;;;;;;;;;;;;2.84;51.25;95750.61;1738108;82;20302;-55
2021/03/12 03:44:00;;;;;;;;;;;;;;;2.94;50.72;95727.88;1708015;83;22229;-55
2021/03/12 03:46:29;;;;;;;;;;;;;;;3.01;49.89;95731.78;1671400;85;20223;-53
2021/03/12 03:48:57;;;;;;;;;;;;;;;3.08;49.57;95758.72;1698044;83;20224;-56
2021/03/12 03:51:41;;;;;;;;;;;;;;;3.12;49.08;95735.03;1699928;84;20233;-54
2021/03/12 03:54:15;;;;;;;;;;;;;;;3.12;49.44;95729.90;1675834;84;20277;-54
2021/03/12 03:56:44;;;;;;;;;;;;;;;3.09;49.39;95714.25;1655238;85;21365;-54
2021/03/12 03:59:13;;;;;;;;;;;;;;;3.09;49.80;95703.15;1682721;85;20215;-53
2021/03/12 04:01:41;;;;;;;;;;;;;;;3.07;50.03;95704.52;1681846;84;20239;-54
2021/03/12 04:04:10;;;;;;;;;;;;;;;3.02;50.11;95674.47;1682528;85;20243;-53
2021/03/12 04:06:40;;;;;;;;;;;;;;;2.99;50.10;95649.01;1682601;85;20510;-54
2021/03/12 04:09:08;;;;;;;;;;;;;;;3.01;50.64;95648.49;1655338;85;21333;-52
2021/03/12 04:11:36;;;;;;;;;;;;;;;3.02;50.64;95642.91;1682639;85;20243;-53
2021/03/12 04:14:04;;;;;;;;;;;;;;;3.00;50.64;95619.92;1682616;85;20258;-53
2021/03/12 04:16:32;;;;;;;;;;;;;;;3.00;50.83;95582.77;1682627;85;20227;-53
2021/03/12 04:19:00;;;;;;;;;;;;;;;3.02;51.17;95591.18;1655161;85;20270;-54
2021/03/12 04:21:27;;;;;;;;;;;;;;;3.08;50.99;95593.41;1655026;85;21659;-54
2021/03/12 04:23:56;;;;;;;;;;;;;;;3.17;50.80;95592.05;1677522;85;20724;-53
2021/03/12 04:26:24;;;;;;;;;;;;;;;3.26;50.74;95582.56;1676052;85;20244;-53
2021/03/12 04:28:51;;;;;;;;;;;;;;;3.39;50.11;95589.53;1676307;85;20264;-54
2021/03/12 04:31:19;;;;;;;;;;;;;;;3.52;50.10;95575.10;1651821;85;20284;-53
2021/03/12 04:33:47;;;;;;;;;;;;;;;3.63;50.02;95573.98;1626500;87;21407;-53
2021/03/12 04:36:15;;;;;;;;;;;;;;;3.73;49.72;95578.11;1672549;85;20239;-55
2021/03/12 04:38:43;;;;;;;;;;;;;;;3.83;49.57;95582.23;1676248;85;20257;-54
2021/03/12 04:41:12;;;;;;;;;;;;;;;3.94;49.70;95560.61;1676061;85;20253;-53
2021/03/12 04:43:41;;;;;;;;;;;;;;;3.95;49.29;95558.42;1676187;85;20295;-54
2021/03/12 04:46:08;;;;;;;;;;;;;;;3.87;49.68;95548.61;1675784;84;21388;-54
2021/03/12 04:48:38;;;;;;;;;;;;;;;3.79;50.22;95546.16;1676109;85;20351;-53
2021/03/12 04:51:07;;;;;;;;;;;;;;;3.70;50.75;95538.55;1676234;85;20264;-53
2021/03/12 04:53:34;;;;;;;;;;;;;;;3.72;51.31;95526.45;1651685;85;20236;-53
2021/03/12 04:56:02;;;;;;;;;;;;;;;3.70;51.25;95527.02;1676270;85;20236;-53
2021/03/12 04:58:31;;;;;;;;;;;;;;;3.69;51.53;95529.20;1609785;87;21226;-52
2021/03/12 05:00:58;;;;;;;;;;;;;;;3.72;51.75;95524.33;1670934;84;20805;-55
2021/03/12 05:03:26;;;;;;;;;;;;;;;3.77;51.45;95530.84;1676170;85;20520;-53
2021/03/12 05:05:54;;;;;;;;;;;;;;;3.84;51.39;95522.31;1676236;85;20240;-53
2021/03/12 05:08:23;;;;;;;;;;;;;;;3.91;51.25;95535.59;1676309;85;20240;-54
2021/03/12 05:11:04;;;;;;;;;;;;;;;3.98;51.14;95554.83;1675125;85;21388;-53
2021/03/12 05:13:36;;;;;;;;;;;;;;;4.04;50.91;95534.73;1675587;85;20241;-55
2021/03/12 05:16:05;;;;;;;;;;;;;;;4.05;50.73;95525.31;1676162;85;20248;-54
2021/03/12 05:18:33;;;;;;;;;;;;;;;4.01;50.56;95501.59;1676063;85;20261;-52
2021/03/12 05:21:02;;;;;;;;;;;;;;;3.99;51.04;95505.97;1676310;85;20240;-53
2021/03/12 05:23:30;;;;;;;;;;;;;;;3.96;50.93;95473.25;1677572;85;21384;-53
2021/03/12 05:25:57;;;;;;;;;;;;;;;3.89;51.04;95457.89;1682596;85;20223;-53
2021/03/12 05:28:24;;;;;;;;;;;;;;;3.86;51.10;95492.24;1682605;85;20235;-52
2021/03/12 05:30:53;;;;;;;;;;;;;;;3.87;51.44;95492.16;1682537;85;20486;-52
2021/03/12 05:33:20;;;;;;;;;;;;;;;3.89;51.76;95457.41;1682673;85;20248;-53
2021/03/12 05:35:48;;;;;;;;;;;;;;;3.95;51.48;95480.61;1682469;85;21222;-52
2021/03/12 05:38:16;;;;;;;;;;;;;;;4.01;51.58;95457.11;1682446;85;20223;-52
2021/03/12 05:40:43;;;;;;;;;;;;;;;4.11;51.52;95477.45;1654954;85;20499;-53
2021/03/12 05:43:11;;;;;;;;;;;;;;;4.23;51.22;95504.91;1682528;85;20240;-53
2021/03/12 05:45:40;;;;;;;;;;;;;;;4.36;50.44;95498.55;1653301;85;20239;-52
2021/03/12 05:48:10;;;;;;;;;;;;;;;4.48;50.45;95495.66;1699398;84;21464;-52
2021/03/12 05:50:38;;;;;;;;;;;;;;;4.55;50.43;95503.33;1682740;84;20610;-52
2021/03/12 05:53:06;;;;;;;;;;;;;;;4.59;50.34;95491.13;1682661;84;20233;-51
2021/03/12 05:55:35;;;;;;;;;;;;;;;4.57;50.30;95471.95;1682645;85;20519;-52
2021/03/12 05:58:03;;;;;;;;;;;;;;;4.56;50.47;95476.72;1682666;85;20256;-51
2021/03/12 06:00:30;;;;;;;;;;;;;;;4.56;50.62;95493.42;1682360;85;21394;-51
2021/03/12 06:02:58;;;;;;;;;;;;;;;4.59;50.69;95487.28;1682401;85;20223;-52
2021/03/12 06:05:28;;;;;;;;;;;;;;;4.59;50.65;95497.08;1689574;84;20492;-52
2021/03/12 06:07:55;;;;;;;;;;;;;;;4.58;50.50;95503.13;1685351;84;20582;-52
2021/03/12 06:10:23;;;;;;;;;;;;;;;4.56;51.03;95508.02;1682675;85;20248;-51
2021/03/12 06:12:55;;;;;;;;;;;;;;;4.55;51.03;95502.51;1682653;85;21675;-51
2021/03/12 06:15:34;;;;;;;;;;;;;;;4.57;51.19;95513.50;1682446;85;20236;-51
2021/03/12 06:18:13;;;;;;;;;;;;;;;4.59;50.92;95514.25;1682474;85;20252;-52
2021/03/12 06:20:42;;;;;;;;;;;;;;;4.54;51.40;95497.84;1682685;85;20216;-52
2021/03/12 06:23:10;;;;;;;;;;;;;;;4.51;51.51;95510.88;1662048;85;20347;-52
2021/03/12 06:25:37;;;;;;;;;;;;;;;4.49;51.64;95507.59;1648962;87;21168;-51
2021/03/12 06:28:18;;;;;;;;;;;;;;;4.53;51.52;95521.06;1648854;87;20226;-52
2021/03/12 06:30:59;;;;;;;;;;;;;;;4.59;51.44;95511.69;1639065;85;20303;-51
2021/03/12 06:33:33;;;;;;;;;;;;;;;4.69;51.27;95532.00;1650926;85;20578;-52
2021/03/12 06:36:14;;;;;;;;;;;;;;;4.76;51.21;95550.42;1595592;89;20267;-52
2021/03/12 06:38:55;;;;;;;;;;;;;;;4.85;51.47;95545.98;1671095;85;21350;-52
2021/03/12 06:41:40;;;;;;;;;;;;;;;4.90;50.55;95511.81;1673459;85;20244;-52
2021/03/12 06:44:32;;;;;;;;;;;;;;;4.93;50.61;95552.74;1698991;84;20221;-51
2021/03/12 06:47:01;;;;;;;;;;;;;;;4.96;50.77;95549.95;1635306;85;20223;-51
2021/03/12 06:49:30;;;;;;;;;;;;;;;5.06;50.47;95537.79;1676433;84;20262;-51
2021/03/12 06:52:05;;;;;;;;;;;;;;;5.08;50.55;95568.92;1647860;85;21176;-53
2021/03/12 06:54:36;;;;;;;;;;;;;;;5.13;50.73;95588.73;1676134;85;20256;-52
2021/03/12 06:57:19;;;;;;;;;;;;;;;5.22;50.54;95580.05;1675807;85;20224;-52
2021/03/12 06:59:59;;;;;;;;;;;;;;;5.29;50.07;95604.44;1675947;85;20244;-52
2021/03/12 07:02:38;;;;;;;;;;;;;;;5.36;50.03;95590.23;1652589;85;20236;-53
2021/03/12 07:05:09;;;;;;;;;;;;;;;5.43;49.85;95603.08;1675923;85;21415;-52
2021/03/12 07:07:41;;;;;;;;;;;;;;;5.41;49.76;95603.65;1675892;85;20239;-52
2021/03/12 07:10:17;;;;;;;;;;;;;;;5.33;50.01;95618.28;1675379;85;20252;-51
2021/03/12 07:12:52;;;;;;;;;;;;;;;5.29;50.16;95618.11;1675887;85;20499;-51
2021/03/12 07:15:21;;;;;;;;;;;;;;;5.28;50.10;95638.78;1675792;85;20227;-53
2021/03/12 07:18:08;;;;;;;;;;;;;;;5.28;49.92;95642.20;1663916;85;21085;-53
2021/03/12 07:20:38;;;;;;;;;;;;;;;5.33;50.09;95648.34;1652780;85;20480;-51
2021/03/12 07:23:08;;;;;;;;;;;;;;;5.38;50.00;95668.16;1676359;85;20228;-52
2021/03/12 07:25:37;;;;;;;;;;;;;;;5.41;49.73;95664.55;1685545;84;20219;-52
2021/03/12 07:28:06;;;;;;;;;;;;;;;5.42;49.52;95660.59;1711292;84;20501;-52
2021/03/12 07:30:36;;;;;;;;;;;;;;;5.43;49.14;95664.82;1695075;84;22283;-52
2021/03/12 07:33:04;;;;;;;;;;;;;;;5.44;48.80;95679.78;1682677;85;20219;-52
2021/03/12 07:35:33;;;;;;;;;;;;;;;5.48;48.63;95691.55;1682454;85;20219;-53
2021/03/12 07:38:06;;;;;;;;;;;;;;;5.50;48.67;95699.98;1682129;85;20223;-51
2021/03/12 07:40:35;;;;;;;;;;;;;;;5.47;48.86;95711.28;1682555;85;20240;-52
2021/03/12 07:43:07;;;;;;;;;;;;;;;5.50;48.13;95693.55;1685970;84;21205;-53
2021/03/12 07:45:38;;;;;;;;;;;;;;;5.45;48.57;95682.73;1675536;84;20502;-52
2021/03/12 07:48:15;;;;;;;;;;;;;;;5.38;49.06;95702.04;1660881;84;20240;-52
2021/03/12 07:50:59;;;;;;;;;;;;;;;5.31;49.18;95674.60;1669175;85;20225;-52
2021/03/12 07:53:47;;;;;;;;;;;;;;;5.21;48.91;95667.12;1684756;84;20244;-52
2021/03/12 07:56:20;;;;;;;;;;;;;;;5.14;49.50;95675.22;1677423;85;21418;-52
2021/03/12 07:58:56;;;;;;;;;;;;;;;5.09;49.57;95689.30;1680513;85;20325;-53
2021/03/12 08:01:53;;;;;;;;;;;;;;;5.07;50.17;95680.39;1682469;85;20230;-52
2021/03/12 08:04:29;;;;;;;;;;;;;;;5.06;50.20;95707.02;1679706;84;20277;-51
2021/03/12 08:07:20;;;;;;;;;;;;;;;5.13;50.32;95702.31;1676028;85;20228;-52
2021/03/12 08:09:50;;;;;;;;;;;;;;;5.18;49.99;95713.16;1655329;85;21233;-50
2021/03/12 08:12:33;;;;;;;;;;;;;;;5.18;49.84;95720.03;1681181;85;20230;-52
2021/03/12 08:15:14;;;;;;;;;;;;;;;5.19;50.18;95712.69;1672210;85;20247;-51
2021/03/12 08:18:00;;;;;;;;;;;;;;;5.20;50.20;95688.60;1682504;85;20260;-50
2021/03/12 08:20:39;;;;;;;;;;;;;;;5.21;50.46;95691.08;1676962;85;20236;-52
2021/03/12 08:23:16;;;;;;;;;;;;;;;5.27;50.45;95677.84;1680844;85;21074;-53
2021/03/12 08:25:47;;;;;;;;;;;;;;;5.30;50.33;95676.83;1630973;86;20265;-52
2021/03/12 08:28:29;;;;;;;;;;;;;;;5.31;50.45;95675.89;1670008;86;20244;-52
2021/03/12 08:31:19;;;;;;;;;;;;;;;5.31;50.56;95673.31;1655965;86;20240;-51
2021/03/12 08:33:53;;;;;;;;;;;;;;;5.25;51.07;95669.88;1627160;86;20261;-52
2021/03/12 08:36:31;;;;;;;;;;;;;;;5.26;50.88;95661.22;1668676;86;21220;-52
2021/03/12 08:39:28;;;;;;;;;;;;;;;5.34;50.53;95671.39;1653695;86;20225;-52
2021/03/12 08:41:58;;;;;;;;;;;;;;;5.40;50.40;95678.35;1617293;86;20272;-53
2021/03/12 08:44:28;;;;;;;;;;;;;;;5.52;49.98;95670.64;1670535;86;20626;-52
2021/03/12 08:47:18;;;;;;;;;;;;;;;5.60;49.38;95658.56;1670500;86;20269;-52
2021/03/12 08:49:48;;;;;;;;;;;;;;;5.56;49.45;95676.44;1670229;85;21288;-51
2021/03/12 08:52:18;;;;;;;;;;;;;;;5.50;49.47;95693.55;1670044;86;20240;-53
2021/03/12 08:54:54;;;;;;;;;;;;;;;5.46;49.72;95680.50;1670157;86;20240;-52
2021/03/12 08:57:23;;;;;;;;;;;;;;;5.42;50.04;95678.59;1670220;84;20567;-52
2021/03/12 09:00:05;;;;;;;;;;;;;;;5.36;50.00;95659.69;1670248;85;20265;-52
2021/03/12 09:02:49;;;;;;;;;;;;;;;5.26;50.72;95668.48;1564629;91;23641;-52
2021/03/12 09:05:26;;;;;;;;;;;;;;;5.18;50.95;95675.88;1637505;86;20245;-53
2021/03/12 09:08:15;;;;;;;;;;;;;;;5.17;51.27;95669.06;1670405;86;20241;-52
2021/03/12 09:10:46;;;;;;;;;;;;;;;5.19;51.21;95672.83;1667380;86;20571;-53
2021/03/12 09:13:31;;;;;;;;;;;;;;;5.23;51.34;95678.97;1670363;86;20315;-52
2021/03/12 09:16:00;;;;;;;;;;;;;;;5.25;51.25;95674.55;1647195;86;21399;-52
2021/03/12 09:18:30;;;;;;;;;;;;;;;5.27;51.54;95674.45;1669037;86;20280;-52
2021/03/12 09:21:06;;;;;;;;;;;;;;;5.30;51.42;95663.50;1647681;86;20241;-52
2021/03/12 09:23:46;;;;;;;;;;;;;;;5.28;51.57;95656.79;1647218;86;20284;-52
2021/03/12 09:26:16;;;;;;;;;;;;;;;5.31;51.82;95663.03;1647114;86;20527;-54
2021/03/12 09:28:46;;;;;;;;;;;;;;;5.36;51.68;95644.26;1669907;86;21224;-52
2021/03/12 09:31:16;;;;;;;;;;;;;;;5.41;51.31;95675.68;1670125;86;20667;-52
2021/03/12 09:33:47;;;;;;;;;;;;;;;5.38;51.77;95684.03;1669985;86;20240;-51
2021/03/12 09:36:33;;;;;;;;;;;;;;;5.35;51.89;95683.78;1669354;86;20240;-52
2021/03/12 09:39:11;;;;;;;;;;;;;;;5.38;51.89;95683.59;1670097;85;20237;-53
2021/03/12 09:41:43;;;;;;;;;;;;;;;5.33;51.87;95704.46;1645177;86;22313;-52
2021/03/12 09:44:13;;;;;;;;;;;;;;;5.26;52.17;95681.35;1645899;86;20248;-52
2021/03/12 09:46:51;;;;;;;;;;;;;;;5.26;52.42;95687.78;1670465;86;20249;-52
2021/03/12 09:49:26;;;;;;;;;;;;;;;5.26;52.26;95681.79;1668806;86;20288;-52
2021/03/12 09:51:55;;;;;;;;;;;;;;;5.21;52.22;95688.51;1670325;85;20248;-53
2021/03/12 09:54:23;;;;;;;;;;;;;;;5.20;52.52;95686.87;1670394;86;21446;-52
2021/03/12 09:56:54;;;;;;;;;;;;;;;5.20;52.29;95690.73;1670202;85;20245;-52
2021/03/12 09:59:24;;;;;;;;;;;;;;;5.24;52.08;95683.64;1670342;85;20267;-53
2021/03/12 10:02:10;;;;;;;;;;;;;;;5.27;52.23;95691.98;1670325;86;20583;-51
2021/03/12 10:04:41;;;;;;;;;;;;;;;5.35;51.84;95686.36;1667272;86;20249;-52
2021/03/12 10:07:13;;;;;;;;;;;;;;;5.44;51.34;95694.75;1646095;86;21245;-53
2021/03/12 10:09:45;;;;;;;;;;;;;;;5.59;51.48;95679.25;1625024;87;20263;-53
2021/03/12 10:12:21;;;;;;;;;;;;;;;5.74;50.91;95694.16;1654376;86;20261;-52
2021/03/12 10:14:53;;;;;;;;;;;;;;;5.87;50.30;95693.70;1668743;84;20237;-52
2021/03/12 10:17:26;;;;;;;;;;;;;;;5.98;50.33;95702.05;1653689;86;20243;-52
2021/03/12 10:19:58;;;;;;;;;;;;;;;6.07;49.98;95713.04;1621143;87;22177;-51
2021/03/12 10:22:39;;;;;;;;;;;;;;;6.11;49.83;95703.35;1645681;86;20519;-52
2021/03/12 10:25:26;;;;;;;;;;;;;;;6.12;49.77;95705.83;1672524;85;20273;-53
2021/03/12 10:27:57;;;;;;;;;;;;;;;6.14;49.56;95691.56;1676200;85;21323;-52
2021/03/12 10:30:31;;;;;;;;;;;;;;;6.14;49.58;95698.00;1674663;85;20247;-52
2021/03/12 10:33:01;;;;;;;;;;;;;;;6.18;49.72;95703.29;1676509;85;22115;-52
2021/03/12 10:35:33;;;;;;;;;;;;;;;6.26;49.79;95712.14;1676272;85;20523;-51
2021/03/12 10:41:03;;;;;;;;;;;;;;;6.41;49.30;95700.45;1772533;81;20295;-51
2021/03/12 10:43:33;;;;;;;;;;;;;;;6.56;49.18;95714.88;1770952;81;20227;-53
2021/03/12 10:46:05;;;;;;;;;;;;;;;6.70;48.66;95711.34;1767412;80;22073;-52
2021/03/12 10:48:43;;;;;;;;;;;;;;;6.78;48.19;95703.89;1772065;81;20295;-52
2021/03/12 10:51:13;;;;;;;;;;;;;;;6.88;48.64;95708.42;1772481;79;20491;-52
2021/03/12 10:53:56;;;;;;;;;;;;;;;7.08;48.02;95711.70;1772681;81;20233;-52
2021/03/12 10:56:21;;;;;;;;;;;;;;;7.26;47.50;95687.64;1741538;82;20267;-51
2021/03/12 10:58:52;;;;;;;;;;;;;;;7.34;47.21;95692.27;1741765;82;21209;-52
2021/03/12 11:01:31;;;;;;;;;;;;;;;7.56;46.73;95686.36;1741768;82;20522;-52
2021/03/12 11:03:58;;;;;;;;;;;;;;;7.85;46.27;95680.83;1741370;82;20259;-51
2021/03/12 11:06:35;;;;;;;;;;;;;;;8.77;45.38;95680.80;1742074;82;20267;-52
2021/03/12 11:09:09;;;;;;;;;;;;;;;9.48;43.97;95690.27;1742083;82;21677;-52
2021/03/12 11:11:36;;;;;;;;;;;;;;;10.32;42.37;95685.61;1742052;82;21197;-52
2021/03/12 11:14:05;;;;;;;;;;;;;;;10.75;40.27;95679.36;1742102;82;20239;-51
2021/03/12 11:16:33;;;;;;;;;;;;;;;10.87;39.88;95667.09;1742050;81;20530;-52
2021/03/12 11:19:01;;;;;;;;;;;;;;;10.62;40.57;95680.88;1742016;82;20359;-51
2021/03/12 11:21:30;;;;;;;;;;;;;;;10.24;40.95;95697.88;1742154;82;20235;-52
2021/03/12 11:23:58;;;;;;;;;;;;;;;9.76;41.84;95704.38;1741789;82;23370;-52
2021/03/12 11:26:28;;;;;;;;;;;;;;;9.27;42.53;95704.45;1741935;82;20298;-52
2021/03/12 11:28:56;;;;;;;;;;;;;;;8.88;43.71;95710.54;1741984;82;20280;-52
2021/03/12 11:31:25;;;;;;;;;;;;;;;8.55;44.25;95707.03;1741969;82;20438;-52
2021/03/12 11:33:53;;;;;;;;;;;;;;;8.12;45.33;95716.68;1741796;82;20229;-53
2021/03/12 11:36:21;;;;;;;;;;;;;;;7.89;46.09;95702.45;1741761;82;21230;-52
2021/03/12 11:38:48;;;;;;;;;;;;;;;7.73;46.66;95727.75;1745958;82;20522;-53
2021/03/12 11:41:15;;;;;;;;;;;;;;;7.61;46.93;95728.15;1709114;82;20220;-51
2021/03/12 11:43:43;;;;;;;;;;;;;;;7.46;47.42;95722.81;1725608;83;20267;-52
2021/03/12 11:46:10;;;;;;;;;;;;;;;7.26;47.67;95717.80;1725595;82;20251;-51
2021/03/12 11:48:39;;;;;;;;;;;;;;;7.15;48.43;95718.54;1705701;84;22881;-54
2021/03/12 11:51:07;;;;;;;;;;;;;;;7.07;48.80;95702.78;1725452;83;21161;-56
2021/03/12 11:53:36;;;;;;;;;;;;;;;7.03;48.70;95722.00;1725342;83;20220;-53
2021/03/12 11:56:04;;;;;;;;;;;;;;;7.03;49.08;95722.00;1725304;82;20518;-52
2021/03/12 11:58:32;;;;;;;;;;;;;;;7.09;49.27;95712.07;1725367;83;20227;-53
2021/03/12 12:00:59;;;;;;;;;;;;;;;7.11;48.57;95706.80;1725545;83;21017;-52
2021/03/12 12:03:26;;;;;;;;;;;;;;;7.15;48.81;95719.39;1705534;84;20264;-52
2021/03/12 12:05:53;;;;;;;;;;;;;;;7.14;49.23;95722.88;1725608;83;20259;-53
2021/03/12 12:08:20;;;;;;;;;;;;;;;7.31;49.09;95700.22;1705673;84;22075;-52
2021/03/12 12:10:48;;;;;;;;;;;;;;;7.37;48.56;95723.83;1725575;83;20244;-51
2021/03/12 12:13:16;;;;;;;;;;;;;;;7.34;49.10;95737.42;1705331;84;22898;-53
2021/03/12 12:15:43;;;;;;;;;;;;;;;7.44;48.93;95739.70;1705330;84;20486;-52
2021/03/12 12:18:11;;;;;;;;;;;;;;;7.80;48.84;95743.62;1648448;87;20296;-52
2021/03/12 12:20:43;;;;;;;;;;;;;;;8.33;46.48;95727.17;1694457;84;20226;-53
2021/03/12 12:23:10;;;;;;;;;;;;;;;8.40;46.83;95737.39;1696684;84;20525;-53
2021/03/12 12:25:38;;;;;;;;;;;;;;;8.13;46.71;95773.89;1696671;84;22131;-52
2021/03/12 12:28:06;;;;;;;;;;;;;;;7.78;47.88;95773.88;1720011;83;20223;-52
2021/03/12 12:30:35;;;;;;;;;;;;;;;7.51;48.45;95763.31;1725289;83;20243;-51
2021/03/12 12:33:03;;;;;;;;;;;;;;;7.41;48.84;95767.02;1725400;83;20678;-51
2021/03/12 12:35:30;;;;;;;;;;;;;;;7.25;49.23;95769.84;1725305;83;20226;-53
2021/03/12 12:37:58;;;;;;;;;;;;;;;7.05;49.76;95765.27;1725292;83;21225;-53
2021/03/12 12:40:25;;;;;;;;;;;;;;;6.88;50.20;95758.71;1733528;82;21928;-53
2021/03/12 12:42:54;;;;;;;;;;;;;;;6.76;50.90;95771.52;1741659;82;20225;-53
2021/03/12 12:45:21;;;;;;;;;;;;;;;6.66;51.00;95783.39;1743833;82;21019;-52
2021/03/12 12:47:48;;;;;;;;;;;;;;;6.69;51.21;95783.63;1746233;82;20229;-53
2021/03/12 12:50:18;;;;;;;;;;;;;;;6.87;50.98;95767.36;1719715;82;20533;-52
2021/03/12 12:52:45;;;;;;;;;;;;;;;6.92;50.79;95782.87;1720113;82;20210;-50
2021/03/12 12:55:14;;;;;;;;;;;;;;;6.87;50.67;95760.92;1741691;81;20246;-52
2021/03/12 12:57:41;;;;;;;;;;;;;;;6.82;51.06;95792.17;1741662;82;20251;-51
2021/03/12 13:00:11;;;;;;;;;;;;;;;6.78;51.47;95794.14;1741740;82;20250;-53
2021/03/12 13:02:39;;;;;;;;;;;;;;;6.82;51.48;95802.48;1741863;82;21221;-53
2021/03/12 13:05:09;;;;;;;;;;;;;;;6.80;51.06;95802.59;1741948;82;20286;-52
2021/03/12 13:07:36;;;;;;;;;;;;;;;6.77;51.43;95808.42;1741974;82;20259;-51
2021/03/12 13:10:04;;;;;;;;;;;;;;;6.82;51.41;95801.20;1741864;81;20217;-52
2021/03/12 13:12:32;;;;;;;;;;;;;;;7.23;50.92;95800.57;1741751;82;20222;-52
2021/03/12 13:14:59;;;;;;;;;;;;;;;7.83;49.73;95795.87;1723286;82;21234;-53
2021/03/12 13:17:27;;;;;;;;;;;;;;;8.44;47.50;95794.44;1741893;82;20517;-52
2021/03/12 13:19:55;;;;;;;;;;;;;;;8.86;47.19;95795.18;1741923;82;20230;-53
2021/03/12 13:22:24;;;;;;;;;;;;;;;9.31;45.61;95795.17;1741964;82;20263;-52